createdAt,value
2019-02-17T00:00:46.382Z,97.59
2019-02-17T00:01:47.775Z,97.73
2019-02-17T00:02:49.176Z,98.01
2019-02-17T00:03:51.220Z,98.16
2019-02-17T00:04:52.608Z,98.35
2019-02-17T00:05:54.012Z,98.20
2019-02-17T00:06:55.396Z,98.39
2019-02-17T00:07:56.820Z,97.97
2019-02-17T00:08:58.205Z,98.30
2019-02-17T00:09:59.597Z,98.58
2019-02-17T00:11:00.981Z,98.49
2019-02-17T00:12:02.384Z,98.58
2019-02-17T00:13:03.793Z,98.30
2019-02-17T00:14:05.228Z,97.82
2019-02-17T00:15:06.627Z,98.49
2019-02-17T00:16:08.036Z,98.96
2019-02-17T00:17:09.440Z,98.96
2019-02-17T00:18:10.841Z,98.96
2019-02-17T00:19:12.235Z,98.77
2019-02-17T00:20:13.660Z,98.77
2019-02-17T00:21:15.053Z,98.96
2019-02-17T00:22:16.461Z,98.58
2019-02-17T00:23:17.849Z,98.39
2019-02-17T00:24:19.259Z,97.82
2019-02-17T00:25:20.675Z,98.30
2019-02-17T00:26:22.047Z,98.20
2019-02-17T00:27:23.440Z,98.11
2019-02-17T00:28:24.847Z,98.39
2019-02-17T00:29:26.243Z,97.92
2019-02-17T00:30:27.624Z,99.05
2019-02-17T00:31:29.007Z,98.77
2019-02-17T00:32:30.394Z,98.77
2019-02-17T00:33:31.798Z,98.77
2019-02-17T00:34:33.211Z,98.58
2019-02-17T00:35:34.600Z,98.96
2019-02-17T00:36:36.002Z,98.86
2019-02-17T00:37:37.384Z,98.58
2019-02-17T00:38:38.768Z,98.86
2019-02-17T00:39:40.728Z,98.86
2019-02-17T00:40:42.138Z,98.77
2019-02-17T00:41:43.557Z,98.68
2019-02-17T00:42:44.955Z,98.96
2019-02-17T00:43:46.362Z,99.43
2019-02-17T00:44:47.763Z,99.24
2019-02-17T00:45:49.153Z,99.24
2019-02-17T00:46:50.545Z,99.33
2019-02-17T00:47:51.948Z,99.43
2019-02-17T00:48:53.334Z,99.43
2019-02-17T00:49:54.730Z,99.24
2019-02-17T00:50:56.123Z,99.62
2019-02-17T00:51:57.516Z,99.24
2019-02-17T00:52:58.908Z,99.81
2019-02-17T00:54:00.308Z,99.43
2019-02-17T00:55:01.686Z,99.81
2019-02-17T00:56:03.093Z,99.62
2019-02-17T00:57:04.482Z,99.99
2019-02-17T00:58:05.870Z,99.71
2019-02-17T00:59:10.244Z,99.71
2019-02-17T01:00:08.592Z,99.81
2019-02-17T01:01:09.995Z,99.71
2019-02-17T01:02:11.384Z,99.24
2019-02-17T01:03:12.784Z,99.52
2019-02-17T01:04:14.194Z,99.90
2019-02-17T01:05:15.592Z,99.99
2019-02-17T01:06:16.984Z,99.33
2019-02-17T01:07:18.366Z,99.62
2019-02-17T01:08:19.758Z,99.33
2019-02-17T01:09:21.164Z,99.15
2019-02-17T01:10:22.560Z,99.43
2019-02-17T01:11:23.958Z,99.71
2019-02-17T01:12:25.342Z,99.81
2019-02-17T01:13:26.742Z,99.71
2019-02-17T01:14:28.134Z,99.81
2019-02-17T01:15:29.535Z,99.24
2019-02-17T01:16:30.973Z,99.15
2019-02-17T01:17:32.391Z,99.62
2019-02-17T01:18:33.784Z,99.71
2019-02-17T01:19:35.191Z,99.71
2019-02-17T01:20:36.580Z,99.99
2019-02-17T01:21:37.971Z,99.43
2019-02-17T01:22:40.115Z,99.43
2019-02-17T01:23:41.505Z,99.52
2019-02-17T01:24:42.893Z,99.99
2019-02-17T01:25:44.292Z,99.99
2019-02-17T01:26:45.691Z,99.99
2019-02-17T01:27:47.089Z,99.99
2019-02-17T01:28:48.476Z,99.99
2019-02-17T01:29:49.868Z,99.99
2019-02-17T01:30:51.258Z,99.99
2019-02-17T01:31:52.647Z,99.99
2019-02-17T01:32:54.029Z,99.99
2019-02-17T01:33:55.413Z,99.99
2019-02-17T01:34:56.807Z,99.99
2019-02-17T01:35:58.194Z,99.99
2019-02-17T01:36:59.649Z,99.99
2019-02-17T01:38:00.989Z,99.99
2019-02-17T01:39:02.369Z,99.99
2019-02-17T01:40:03.754Z,99.99
2019-02-17T01:41:05.135Z,99.99
2019-02-17T01:42:06.535Z,99.99
2019-02-17T01:43:07.929Z,99.99
2019-02-17T01:44:09.317Z,99.99
2019-02-17T01:45:10.699Z,99.99
2019-02-17T01:46:12.085Z,99.99
2019-02-17T01:47:13.472Z,99.99
2019-02-17T01:48:14.862Z,99.99
2019-02-17T01:49:16.253Z,99.99
2019-02-17T01:50:17.631Z,99.99
2019-02-17T01:51:19.025Z,99.99
2019-02-17T01:52:20.415Z,99.99
2019-02-17T01:53:21.805Z,99.99
2019-02-17T01:54:23.195Z,99.99
2019-02-17T01:55:24.590Z,99.99
2019-02-17T01:56:25.968Z,99.99
2019-02-17T01:57:27.351Z,99.99
2019-02-17T01:58:28.741Z,99.99
2019-02-17T01:59:30.883Z,99.99
2019-02-17T02:00:31.490Z,99.99
2019-02-17T02:01:32.882Z,99.99
2019-02-17T02:02:34.282Z,99.99
2019-02-17T02:03:35.693Z,99.99
2019-02-17T02:04:37.110Z,99.99
2019-02-17T02:05:38.510Z,99.99
2019-02-17T02:06:39.909Z,99.99
2019-02-17T02:07:41.310Z,99.99
2019-02-17T02:08:42.703Z,99.99
2019-02-17T02:09:44.086Z,99.99
2019-02-17T02:10:45.490Z,99.99
2019-02-17T02:11:46.890Z,99.99
2019-02-17T02:12:48.992Z,99.99
2019-02-17T02:13:50.390Z,99.99
2019-02-17T02:14:51.782Z,99.99
2019-02-17T02:15:53.188Z,99.99
2019-02-17T02:16:54.573Z,99.99
2019-02-17T02:17:55.970Z,99.99
2019-02-17T02:18:57.342Z,99.99
2019-02-17T02:19:59.404Z,99.99
2019-02-17T02:21:00.790Z,99.99
2019-02-17T02:22:02.196Z,99.99
2019-02-17T02:23:03.581Z,99.99
2019-02-17T02:24:04.968Z,99.99
2019-02-17T02:25:06.351Z,99.99
2019-02-17T02:26:07.748Z,99.99
2019-02-17T02:27:09.136Z,99.99
2019-02-17T02:28:10.511Z,99.99
2019-02-17T02:29:11.912Z,99.99
2019-02-17T02:30:13.324Z,99.99
2019-02-17T02:31:14.690Z,99.99
2019-02-17T02:32:16.080Z,99.99
2019-02-17T02:33:17.470Z,99.99
2019-02-17T02:34:18.848Z,99.99
2019-02-17T02:35:20.256Z,99.99
2019-02-17T02:36:21.651Z,99.99
2019-02-17T02:37:23.078Z,99.99
2019-02-17T02:38:24.467Z,99.99
2019-02-17T02:39:25.883Z,99.99
2019-02-17T02:40:27.293Z,99.99
2019-02-17T02:41:34.645Z,99.99
2019-02-17T02:42:30.048Z,99.99
2019-02-17T02:43:31.447Z,99.99
2019-02-17T02:44:32.885Z,99.99
2019-02-17T02:45:34.269Z,99.99
2019-02-17T02:46:35.743Z,99.99
2019-02-17T02:47:37.079Z,99.99
2019-02-17T02:48:38.475Z,99.99
2019-02-17T02:49:39.905Z,99.99
2019-02-17T02:50:41.288Z,99.99
2019-02-17T02:51:42.668Z,99.99
2019-02-17T02:52:44.058Z,99.99
2019-02-17T02:53:45.441Z,99.99
2019-02-17T02:54:46.845Z,99.99
2019-02-17T02:55:48.244Z,99.99
2019-02-17T02:56:49.630Z,99.99
2019-02-17T02:57:51.761Z,99.99
2019-02-17T02:58:53.189Z,99.99
2019-02-17T02:59:54.616Z,99.99
2019-02-17T03:00:56.008Z,99.99
2019-02-17T03:01:57.398Z,99.99
2019-02-17T03:02:58.803Z,99.99
2019-02-17T03:04:00.176Z,99.99
2019-02-17T03:05:01.630Z,99.99
2019-02-17T03:06:03.010Z,99.99
2019-02-17T03:07:04.414Z,99.99
2019-02-17T03:08:05.815Z,99.99
2019-02-17T03:09:07.214Z,99.99
2019-02-17T03:10:09.267Z,99.99
2019-02-17T03:11:10.666Z,99.99
2019-02-17T03:12:12.072Z,99.99
2019-02-17T03:13:13.468Z,99.99
2019-02-17T03:14:14.862Z,99.99
2019-02-17T03:15:16.266Z,99.99
2019-02-17T03:16:17.657Z,99.99
2019-02-17T03:17:19.055Z,99.99
2019-02-17T03:18:20.450Z,99.99
2019-02-17T03:19:21.839Z,99.99
2019-02-17T03:20:23.225Z,99.99
2019-02-17T03:21:24.613Z,99.99
2019-02-17T03:22:26.004Z,99.99
2019-02-17T03:23:27.383Z,99.99
2019-02-17T03:24:28.774Z,99.86
2019-02-17T03:25:30.167Z,99.99
2019-02-17T03:26:31.553Z,99.52
2019-02-17T03:27:32.959Z,99.99
2019-02-17T03:28:34.383Z,99.99
2019-02-17T03:29:35.763Z,99.99
2019-02-17T03:30:37.177Z,99.99
2019-02-17T03:31:38.587Z,99.81
2019-02-17T03:32:40.002Z,99.43
2019-02-17T03:33:41.372Z,99.99
2019-02-17T03:34:42.771Z,99.62
2019-02-17T03:35:44.592Z,99.99
2019-02-17T03:36:45.551Z,99.99
2019-02-17T03:37:46.948Z,99.99
2019-02-17T03:38:48.341Z,99.99
2019-02-17T03:39:49.743Z,99.99
2019-02-17T03:40:51.125Z,99.99
2019-02-17T03:41:52.529Z,99.99
2019-02-17T03:42:53.926Z,99.99
2019-02-17T03:43:55.331Z,99.99
2019-02-17T03:44:56.707Z,99.99
2019-02-17T03:45:58.090Z,99.81
2019-02-17T03:46:59.473Z,99.99
2019-02-17T03:48:00.912Z,99.99
2019-02-17T03:49:02.260Z,99.99
2019-02-17T03:50:03.636Z,99.99
2019-02-17T03:51:05.039Z,99.71
2019-02-17T03:52:06.431Z,99.52
2019-02-17T03:53:07.822Z,99.99
2019-02-17T03:54:09.215Z,99.81
2019-02-17T03:55:10.599Z,99.99
2019-02-17T03:56:11.992Z,99.99
2019-02-17T03:57:13.378Z,99.99
2019-02-17T03:58:14.771Z,99.99
2019-02-17T03:59:16.159Z,99.99
2019-02-17T04:00:17.732Z,99.99
2019-02-17T04:01:18.897Z,99.99
2019-02-17T04:02:20.282Z,99.99
2019-02-17T04:03:21.664Z,99.99
2019-02-17T04:04:23.062Z,99.99
2019-02-17T04:05:24.451Z,99.99
2019-02-17T04:06:25.835Z,99.99
2019-02-17T04:07:27.216Z,99.99
2019-02-17T04:08:28.609Z,99.99
2019-02-17T04:09:30.000Z,99.99
2019-02-17T04:10:31.398Z,99.99
2019-02-17T04:11:32.780Z,99.99
2019-02-17T04:12:34.174Z,99.99
2019-02-17T04:13:35.560Z,99.99
2019-02-17T04:14:36.946Z,99.99
2019-02-17T04:15:38.353Z,99.90
2019-02-17T04:16:39.721Z,99.81
2019-02-17T04:17:41.109Z,99.99
2019-02-17T04:18:42.494Z,99.99
2019-02-17T04:19:43.891Z,99.52
2019-02-17T04:20:45.273Z,99.52
2019-02-17T04:21:46.674Z,99.99
2019-02-17T04:22:48.084Z,99.99
2019-02-17T04:23:49.481Z,99.99
2019-02-17T04:24:50.886Z,99.99
2019-02-17T04:25:52.265Z,99.99
2019-02-17T04:26:53.621Z,99.99
2019-02-17T04:27:55.016Z,99.99
2019-02-17T04:28:56.413Z,99.99
2019-02-17T04:29:57.812Z,99.99
2019-02-17T04:30:59.200Z,99.99
2019-02-17T04:32:00.581Z,99.96
2019-02-17T04:33:01.963Z,99.99
2019-02-17T04:34:03.361Z,99.77
2019-02-17T04:35:04.760Z,99.99
2019-02-17T04:36:06.146Z,99.99
2019-02-17T04:37:07.523Z,99.99
2019-02-17T04:38:08.914Z,99.99
2019-02-17T04:39:10.300Z,99.99
2019-02-17T04:40:11.686Z,99.99
2019-02-17T04:41:13.076Z,99.99
2019-02-17T04:42:14.459Z,99.99
2019-02-17T04:43:15.851Z,99.99
2019-02-17T04:44:17.238Z,99.99
2019-02-17T04:45:19.602Z,99.99
2019-02-17T04:46:20.996Z,99.99
2019-02-17T04:47:22.392Z,99.99
2019-02-17T04:48:23.779Z,99.99
2019-02-17T04:49:25.159Z,99.99
2019-02-17T04:50:26.553Z,99.99
2019-02-17T04:51:27.971Z,99.99
2019-02-17T04:52:29.371Z,99.99
2019-02-17T04:53:30.764Z,99.99
2019-02-17T04:54:32.163Z,99.99
2019-02-17T04:55:33.547Z,99.99
2019-02-17T04:56:34.930Z,99.96
2019-02-17T04:57:36.333Z,99.99
2019-02-17T04:58:37.713Z,99.99
2019-02-17T04:59:39.100Z,99.99
2019-02-17T05:00:40.733Z,99.99
2019-02-17T05:01:41.848Z,99.99
2019-02-17T05:02:43.254Z,99.99
2019-02-17T05:03:44.645Z,99.99
2019-02-17T05:04:46.044Z,99.99
2019-02-17T05:05:47.425Z,99.99
2019-02-17T05:06:48.838Z,99.99
2019-02-17T05:07:50.227Z,99.99
2019-02-17T05:08:51.624Z,99.99
2019-02-17T05:09:53.023Z,99.99
2019-02-17T05:10:54.407Z,99.99
2019-02-17T05:11:55.800Z,99.99
2019-02-17T05:12:57.192Z,99.99
2019-02-17T05:13:59.524Z,99.99
2019-02-17T05:15:00.935Z,99.99
2019-02-17T05:16:02.323Z,99.99
2019-02-17T05:17:03.720Z,99.99
2019-02-17T05:18:05.110Z,99.99
2019-02-17T05:19:06.497Z,99.99
2019-02-17T05:20:07.895Z,99.99
2019-02-17T05:21:09.299Z,99.99
2019-02-17T05:22:10.693Z,99.99
2019-02-17T05:23:12.080Z,99.99
2019-02-17T05:24:13.471Z,99.99
2019-02-17T05:25:14.924Z,99.99
2019-02-17T05:26:16.215Z,99.99
2019-02-17T05:27:17.610Z,99.99
2019-02-17T05:28:18.996Z,99.99
2019-02-17T05:29:20.394Z,99.99
2019-02-17T05:30:21.792Z,99.99
2019-02-17T05:31:23.169Z,99.99
2019-02-17T05:32:24.582Z,99.99
2019-02-17T05:33:25.970Z,99.99
2019-02-17T05:34:27.364Z,99.99
2019-02-17T05:35:28.751Z,99.99
2019-02-17T05:36:30.137Z,99.99
2019-02-17T05:37:31.536Z,99.99
2019-02-17T05:38:32.928Z,99.99
2019-02-17T05:39:34.307Z,99.99
2019-02-17T05:40:36.639Z,99.99
2019-02-17T05:41:37.055Z,99.99
2019-02-17T05:42:38.408Z,99.99
2019-02-17T05:43:39.819Z,99.99
2019-02-17T05:44:41.220Z,99.86
2019-02-17T05:45:42.607Z,99.67
2019-02-17T05:46:43.993Z,99.96
2019-02-17T05:47:45.377Z,99.86
2019-02-17T05:48:46.764Z,99.77
2019-02-17T05:49:48.153Z,99.77
2019-02-17T05:50:49.546Z,99.58
2019-02-17T05:51:50.929Z,99.99
2019-02-17T05:52:52.319Z,99.99
2019-02-17T05:53:53.703Z,99.99
2019-02-17T05:54:55.092Z,99.99
2019-02-17T05:55:56.484Z,99.99
2019-02-17T05:56:57.876Z,99.99
2019-02-17T05:57:59.254Z,99.99
2019-02-17T05:59:00.639Z,99.53
2019-02-17T06:00:02.055Z,99.99
2019-02-17T06:01:04.224Z,99.82
2019-02-17T06:02:04.762Z,99.53
2019-02-17T06:03:06.173Z,99.53
2019-02-17T06:04:07.533Z,99.34
2019-02-17T06:05:08.933Z,99.53
2019-02-17T06:06:10.324Z,98.96
2019-02-17T06:07:11.707Z,99.34
2019-02-17T06:08:13.090Z,99.72
2019-02-17T06:09:14.488Z,99.72
2019-02-17T06:10:15.872Z,99.44
2019-02-17T06:11:17.256Z,98.87
2019-02-17T06:12:18.792Z,98.96
2019-02-17T06:13:19.991Z,99.06
2019-02-17T06:14:21.379Z,98.77
2019-02-17T06:15:22.770Z,99.06
2019-02-17T06:16:24.161Z,99.06
2019-02-17T06:17:25.566Z,99.15
2019-02-17T06:18:26.934Z,99.25
2019-02-17T06:19:28.322Z,98.77
2019-02-17T06:20:29.712Z,99.06
2019-02-17T06:21:31.098Z,98.96
2019-02-17T06:22:32.495Z,98.68
2019-02-17T06:23:33.876Z,98.39
2019-02-17T06:24:35.272Z,98.30
2019-02-17T06:25:36.664Z,98.68
2019-02-17T06:26:38.044Z,98.30
2019-02-17T06:27:39.429Z,98.21
2019-02-17T06:28:40.823Z,98.58
2019-02-17T06:29:42.216Z,99.06
2019-02-17T06:30:43.608Z,98.96
2019-02-17T06:31:45.006Z,98.68
2019-02-17T06:32:46.399Z,98.87
2019-02-17T06:33:47.784Z,98.87
2019-02-17T06:34:49.183Z,99.06
2019-02-17T06:35:50.569Z,99.15
2019-02-17T06:36:51.970Z,99.34
2019-02-17T06:37:53.362Z,98.77
2019-02-17T06:38:54.751Z,99.34
2019-02-17T06:39:56.142Z,98.87
2019-02-17T06:40:57.535Z,98.87
2019-02-17T06:41:58.922Z,98.49
2019-02-17T06:43:00.316Z,98.11
2019-02-17T06:44:01.713Z,98.68
2019-02-17T06:45:03.106Z,97.92
2019-02-17T06:46:04.500Z,98.21
2019-02-17T06:47:05.895Z,98.87
2019-02-17T06:48:07.291Z,98.58
2019-02-17T06:49:08.670Z,98.49
2019-02-17T06:50:10.079Z,98.58
2019-02-17T06:51:11.467Z,98.39
2019-02-17T06:52:12.854Z,98.30
2019-02-17T06:53:14.244Z,98.11
2019-02-17T06:54:15.651Z,97.64
2019-02-17T06:55:17.034Z,97.64
2019-02-17T06:56:18.426Z,97.83
2019-02-17T06:57:19.819Z,97.92
2019-02-17T06:58:21.209Z,97.69
2019-02-17T06:59:22.602Z,97.78
2019-02-17T07:00:24.018Z,97.78
2019-02-17T07:01:25.417Z,97.88
2019-02-17T07:02:26.817Z,97.69
2019-02-17T07:03:28.211Z,97.88
2019-02-17T07:04:29.595Z,97.21
2019-02-17T07:05:31.003Z,97.12
2019-02-17T07:06:32.430Z,97.12
2019-02-17T07:07:33.800Z,96.73
2019-02-17T07:08:35.190Z,96.55
2019-02-17T07:09:36.578Z,96.55
2019-02-17T07:10:37.980Z,96.36
2019-02-17T07:11:39.435Z,96.17
2019-02-17T07:12:42.532Z,96.64
2019-02-17T07:13:42.171Z,96.92
2019-02-17T07:14:43.586Z,96.73
2019-02-17T07:15:44.991Z,96.64
2019-02-17T07:16:46.375Z,96.45
2019-02-17T07:17:47.780Z,96.08
2019-02-17T07:18:49.185Z,96.08
2019-02-17T07:19:50.576Z,96.08
2019-02-17T07:20:51.985Z,96.64
2019-02-17T07:21:53.397Z,96.08
2019-02-17T07:22:54.785Z,95.69
2019-02-17T07:23:56.201Z,95.41
2019-02-17T07:24:57.615Z,95.31
2019-02-17T07:25:59.023Z,94.84
2019-02-17T07:27:00.437Z,94.93
2019-02-17T07:28:01.850Z,94.84
2019-02-17T07:29:03.268Z,95.50
2019-02-17T07:30:04.658Z,95.31
2019-02-17T07:31:06.073Z,95.17
2019-02-17T07:32:07.477Z,95.46
2019-02-17T07:33:08.886Z,95.46
2019-02-17T07:34:10.282Z,94.98
2019-02-17T07:35:11.666Z,94.79
2019-02-17T07:36:13.072Z,95.07
2019-02-17T07:37:14.466Z,94.60
2019-02-17T07:38:15.861Z,95.07
2019-02-17T07:39:17.242Z,95.46
2019-02-17T07:40:18.654Z,95.17
2019-02-17T07:41:20.047Z,95.27
2019-02-17T07:42:21.447Z,95.17
2019-02-17T07:43:22.851Z,94.98
2019-02-17T07:44:24.827Z,94.98
2019-02-17T07:45:26.237Z,94.13
2019-02-17T07:46:27.633Z,94.89
2019-02-17T07:47:29.019Z,94.42
2019-02-17T07:48:30.405Z,94.13
2019-02-17T07:49:31.803Z,94.23
2019-02-17T07:50:33.191Z,93.84
2019-02-17T07:51:34.589Z,93.75
2019-02-17T07:52:35.976Z,94.13
2019-02-17T07:53:37.401Z,93.94
2019-02-17T07:54:38.763Z,93.46
2019-02-17T07:55:40.176Z,93.84
2019-02-17T07:56:41.553Z,93.65
2019-02-17T07:57:42.950Z,93.84
2019-02-17T07:58:44.345Z,93.18
2019-02-17T07:59:45.746Z,93.27
2019-02-17T08:00:47.132Z,92.99
2019-02-17T08:01:48.526Z,94.03
2019-02-17T08:02:49.923Z,93.99
2019-02-17T08:03:51.313Z,93.89
2019-02-17T08:04:52.708Z,93.94
2019-02-17T08:05:54.091Z,94.98
2019-02-17T08:06:55.524Z,95.46
2019-02-17T08:07:56.914Z,96.12
2019-02-17T08:08:58.310Z,96.88
2019-02-17T08:10:00.811Z,97.17
2019-02-17T08:11:04.124Z,96.88
2019-02-17T08:12:02.419Z,96.78
2019-02-17T08:13:03.821Z,95.74
2019-02-17T08:14:05.299Z,94.89
2019-02-17T08:15:07.291Z,94.98
2019-02-17T08:16:08.050Z,95.17
2019-02-17T08:17:09.449Z,94.98
2019-02-17T08:18:10.879Z,94.74
2019-02-17T08:19:12.270Z,94.18
2019-02-17T08:20:13.663Z,94.46
2019-02-17T08:21:15.055Z,94.84
2019-02-17T08:22:16.525Z,94.84
2019-02-17T08:23:17.924Z,93.99
2019-02-17T08:24:19.312Z,93.60
2019-02-17T08:25:22.155Z,93.80
2019-02-17T08:26:22.066Z,93.89
2019-02-17T08:27:23.463Z,93.13
2019-02-17T08:28:24.864Z,93.23
2019-02-17T08:29:26.268Z,93.41
2019-02-17T08:30:27.658Z,92.66
2019-02-17T08:31:29.058Z,93.13
2019-02-17T08:32:30.453Z,93.04
2019-02-17T08:33:31.846Z,92.75
2019-02-17T08:34:33.242Z,92.56
2019-02-17T08:35:34.635Z,92.37
2019-02-17T08:36:36.037Z,92.90
2019-02-17T08:37:37.441Z,92.85
2019-02-17T08:38:38.900Z,92.61
2019-02-17T08:39:40.295Z,92.71
2019-02-17T08:40:41.734Z,92.71
2019-02-17T08:41:43.128Z,92.71
2019-02-17T08:42:44.533Z,92.51
2019-02-17T08:43:45.921Z,92.42
2019-02-17T08:44:47.322Z,92.13
2019-02-17T08:45:48.709Z,92.04
2019-02-17T08:46:50.099Z,92.04
2019-02-17T08:47:51.489Z,91.94
2019-02-17T08:48:52.885Z,92.13
2019-02-17T08:49:54.288Z,92.32
2019-02-17T08:50:55.676Z,92.13
2019-02-17T08:51:57.080Z,91.38
2019-02-17T08:52:58.479Z,91.75
2019-02-17T08:53:59.878Z,91.66
2019-02-17T08:55:01.267Z,91.47
2019-02-17T08:56:02.664Z,91.56
2019-02-17T08:57:04.054Z,91.33
2019-02-17T08:58:05.448Z,91.42
2019-02-17T08:59:06.844Z,91.42
2019-02-17T09:00:08.246Z,91.61
2019-02-17T09:01:09.643Z,91.61
2019-02-17T09:02:11.046Z,91.71
2019-02-17T09:03:13.284Z,91.42
2019-02-17T09:04:14.668Z,91.33
2019-02-17T09:05:16.063Z,90.85
2019-02-17T09:06:17.453Z,90.94
2019-02-17T09:07:18.855Z,90.75
2019-02-17T09:08:20.275Z,90.47
2019-02-17T09:09:21.671Z,90.56
2019-02-17T09:10:23.056Z,90.85
2019-02-17T09:11:24.460Z,90.85
2019-02-17T09:12:25.846Z,90.85
2019-02-17T09:13:27.240Z,90.85
2019-02-17T09:14:28.637Z,90.85
2019-02-17T09:15:30.044Z,90.56
2019-02-17T09:16:31.449Z,90.19
2019-02-17T09:17:32.841Z,90.56
2019-02-17T09:18:34.230Z,90.28
2019-02-17T09:19:35.641Z,90.00
2019-02-17T09:20:37.048Z,90.75
2019-02-17T09:21:38.441Z,90.66
2019-02-17T09:22:39.843Z,90.56
2019-02-17T09:23:41.240Z,90.75
2019-02-17T09:24:42.638Z,90.56
2019-02-17T09:25:44.044Z,90.14
2019-02-17T09:26:45.426Z,89.66
2019-02-17T09:27:47.081Z,90.14
2019-02-17T09:28:48.190Z,89.75
2019-02-17T09:29:49.581Z,89.28
2019-02-17T09:30:51.048Z,89.66
2019-02-17T09:31:52.486Z,89.37
2019-02-17T09:32:53.942Z,89.85
2019-02-17T09:33:55.383Z,89.85
2019-02-17T09:34:56.813Z,90.04
2019-02-17T09:35:58.303Z,89.09
2019-02-17T09:36:59.758Z,89.66
2019-02-17T09:38:01.195Z,89.75
2019-02-17T09:39:02.633Z,89.18
2019-02-17T09:40:04.108Z,89.28
2019-02-17T09:41:05.602Z,88.71
2019-02-17T09:42:07.037Z,88.52
2019-02-17T09:43:08.484Z,88.56
2019-02-17T09:44:09.937Z,89.04
2019-02-17T09:45:11.337Z,88.52
2019-02-17T09:46:12.744Z,88.94
2019-02-17T09:47:14.145Z,88.94
2019-02-17T09:48:15.537Z,88.94
2019-02-17T09:49:16.929Z,88.56
2019-02-17T09:50:18.331Z,88.56
2019-02-17T09:51:19.725Z,88.46
2019-02-17T09:52:21.122Z,88.75
2019-02-17T09:53:22.516Z,88.66
2019-02-17T09:54:23.920Z,87.80
2019-02-17T09:55:25.318Z,88.18
2019-02-17T09:56:26.720Z,88.37
2019-02-17T09:57:28.172Z,88.56
2019-02-17T09:58:29.570Z,88.28
2019-02-17T09:59:30.970Z,87.94
2019-02-17T10:00:32.366Z,88.04
2019-02-17T10:01:33.771Z,88.04
2019-02-17T10:02:35.170Z,87.65
2019-02-17T10:03:36.574Z,86.70
2019-02-17T10:04:37.971Z,86.90
2019-02-17T10:05:39.365Z,86.55
2019-02-17T10:06:40.766Z,85.99
2019-02-17T10:07:42.164Z,85.99
2019-02-17T10:08:43.562Z,85.60
2019-02-17T10:09:44.961Z,84.94
2019-02-17T10:10:46.373Z,85.03
2019-02-17T10:11:47.772Z,84.56
2019-02-17T10:12:49.164Z,84.17
2019-02-17T10:13:50.577Z,84.22
2019-02-17T10:14:51.972Z,84.12
2019-02-17T10:15:53.371Z,84.22
2019-02-17T10:16:54.775Z,83.45
2019-02-17T10:17:56.203Z,84.03
2019-02-17T10:18:57.593Z,82.98
2019-02-17T10:19:58.985Z,83.17
2019-02-17T10:21:00.382Z,82.64
2019-02-17T10:22:01.814Z,82.35
2019-02-17T10:23:03.204Z,81.97
2019-02-17T10:24:04.620Z,81.68
2019-02-17T10:25:06.030Z,81.49
2019-02-17T10:26:07.446Z,81.30
2019-02-17T10:27:08.846Z,81.21
2019-02-17T10:28:10.262Z,81.88
2019-02-17T10:29:11.678Z,81.21
2019-02-17T10:30:13.083Z,81.40
2019-02-17T10:31:14.491Z,81.49
2019-02-17T10:32:15.911Z,81.15
2019-02-17T10:33:17.330Z,80.96
2019-02-17T10:34:18.740Z,81.06
2019-02-17T10:35:20.147Z,80.68
2019-02-17T10:36:21.545Z,80.30
2019-02-17T10:37:22.943Z,79.48
2019-02-17T10:38:24.351Z,79.00
2019-02-17T10:39:25.766Z,78.62
2019-02-17T10:40:27.174Z,78.52
2019-02-17T10:41:28.611Z,78.52
2019-02-17T10:42:30.015Z,77.86
2019-02-17T10:43:31.422Z,78.14
2019-02-17T10:44:32.820Z,78.14
2019-02-17T10:45:34.234Z,77.86
2019-02-17T10:46:35.631Z,78.05
2019-02-17T10:47:37.039Z,78.33
2019-02-17T10:48:38.443Z,78.28
2019-02-17T10:49:39.846Z,78.28
2019-02-17T10:50:41.254Z,77.89
2019-02-17T10:51:42.664Z,78.18
2019-02-17T10:52:44.065Z,77.36
2019-02-17T10:53:45.488Z,77.26
2019-02-17T10:54:47.037Z,76.98
2019-02-17T10:55:48.278Z,76.40
2019-02-17T10:56:49.688Z,77.08
2019-02-17T10:57:51.093Z,76.25
2019-02-17T10:58:52.512Z,75.78
2019-02-17T10:59:55.888Z,75.78
2019-02-17T11:00:55.280Z,75.39
2019-02-17T11:01:56.708Z,75.14
2019-02-17T11:02:58.116Z,74.76
2019-02-17T11:03:59.551Z,74.85
2019-02-17T11:05:00.951Z,74.19
2019-02-17T11:06:02.354Z,74.28
2019-02-17T11:07:03.757Z,73.94
2019-02-17T11:08:05.159Z,72.98
2019-02-17T11:09:06.555Z,71.87
2019-02-17T11:10:07.964Z,71.77
2019-02-17T11:11:09.392Z,70.95
2019-02-17T11:12:10.801Z,69.54
2019-02-17T11:13:12.221Z,68.78
2019-02-17T11:14:13.638Z,68.01
2019-02-17T11:15:15.045Z,67.63
2019-02-17T11:16:16.459Z,67.09
2019-02-17T11:17:17.865Z,66.99
2019-02-17T11:18:19.276Z,66.26
2019-02-17T11:19:20.676Z,65.97
2019-02-17T11:20:22.100Z,65.78
2019-02-17T11:21:23.514Z,65.59
2019-02-17T11:22:24.932Z,64.82
2019-02-17T11:23:26.337Z,64.82
2019-02-17T11:24:27.762Z,64.63
2019-02-17T11:25:29.169Z,64.63
2019-02-17T11:26:30.576Z,64.05
2019-02-17T11:27:32.012Z,64.18
2019-02-17T11:28:33.418Z,63.89
2019-02-17T11:29:34.833Z,63.60
2019-02-17T11:30:36.256Z,63.12
2019-02-17T11:31:37.685Z,63.51
2019-02-17T11:32:39.110Z,63.60
2019-02-17T11:33:40.526Z,62.93
2019-02-17T11:34:41.941Z,62.65
2019-02-17T11:35:43.387Z,62.45
2019-02-17T11:36:44.806Z,62.29
2019-02-17T11:37:46.217Z,61.91
2019-02-17T11:38:47.637Z,62.01
2019-02-17T11:39:49.109Z,62.10
2019-02-17T11:40:50.438Z,61.62
2019-02-17T11:41:51.839Z,60.66
2019-02-17T11:42:53.290Z,60.85
2019-02-17T11:43:54.729Z,61.05
2019-02-17T11:44:56.149Z,62.19
2019-02-17T11:45:57.562Z,61.52
2019-02-17T11:46:58.996Z,61.08
2019-02-17T11:48:00.441Z,60.69
2019-02-17T11:49:01.866Z,60.40
2019-02-17T11:50:03.299Z,60.40
2019-02-17T11:51:04.711Z,60.02
2019-02-17T11:52:06.145Z,60.31
2019-02-17T11:53:07.578Z,60.21
2019-02-17T11:54:09.004Z,59.99
2019-02-17T11:55:10.416Z,60.18
2019-02-17T11:56:11.838Z,60.50
2019-02-17T11:57:13.251Z,60.66
2019-02-17T11:58:14.661Z,60.85
2019-02-17T11:59:16.088Z,60.78
2019-02-17T12:00:18.709Z,60.78
2019-02-17T12:01:20.124Z,59.99
2019-02-17T12:02:24.902Z,60.18
2019-02-17T12:03:22.919Z,60.47
2019-02-17T12:04:24.325Z,60.47
2019-02-17T12:05:25.765Z,60.75
2019-02-17T12:06:27.194Z,61.14
2019-02-17T12:07:28.589Z,61.40
2019-02-17T12:08:30.011Z,61.69
2019-02-17T12:09:31.416Z,61.59
2019-02-17T12:10:32.827Z,61.59
2019-02-17T12:11:34.242Z,62.36
2019-02-17T12:12:35.655Z,62.07
2019-02-17T12:13:37.272Z,62.45
2019-02-17T12:14:39.004Z,62.74
2019-02-17T12:15:40.459Z,62.74
2019-02-17T12:16:42.102Z,63.12
2019-02-17T12:17:43.856Z,63.22
2019-02-17T12:18:45.624Z,62.93
2019-02-17T12:19:47.347Z,62.74
2019-02-17T12:20:48.956Z,63.03
2019-02-17T12:21:50.661Z,63.00
2019-02-17T12:22:52.228Z,63.57
2019-02-17T12:23:53.968Z,63.70
2019-02-17T12:24:55.559Z,63.67
2019-02-17T12:25:57.204Z,63.76
2019-02-17T12:26:58.933Z,63.42
2019-02-17T12:28:00.587Z,63.76
2019-02-17T12:29:02.253Z,63.76
2019-02-17T12:30:04.551Z,63.70
2019-02-17T12:31:06.030Z,63.42
2019-02-17T12:32:07.437Z,64.43
2019-02-17T12:33:17.742Z,63.76
2019-02-17T12:34:10.244Z,63.38
2019-02-17T12:35:11.661Z,63.67
2019-02-17T12:36:13.067Z,63.86
2019-02-17T12:37:14.476Z,63.96
2019-02-17T12:38:15.883Z,64.53
2019-02-17T12:39:17.908Z,65.65
2019-02-17T12:40:19.332Z,65.94
2019-02-17T12:41:20.930Z,65.75
2019-02-17T12:42:22.464Z,66.32
2019-02-17T12:43:23.843Z,66.99
2019-02-17T12:44:25.244Z,67.09
2019-02-17T12:45:26.652Z,67.34
2019-02-17T12:46:28.064Z,67.44
2019-02-17T12:47:29.474Z,67.25
2019-02-17T12:48:30.904Z,67.34
2019-02-17T12:49:32.312Z,67.54
2019-02-17T12:50:33.727Z,67.54
2019-02-17T12:51:35.139Z,67.54
2019-02-17T12:52:46.313Z,67.91
2019-02-17T12:53:37.958Z,68.21
2019-02-17T12:54:39.361Z,68.01
2019-02-17T12:55:40.793Z,68.59
2019-02-17T12:56:42.216Z,68.87
2019-02-17T12:57:43.663Z,69.26
2019-02-17T12:58:45.113Z,69.35
2019-02-17T12:59:46.551Z,69.64
2019-02-17T13:00:47.986Z,69.74
2019-02-17T13:01:49.385Z,69.17
2019-02-17T13:02:50.795Z,69.35
2019-02-17T13:03:52.214Z,69.35
2019-02-17T13:04:53.634Z,69.26
2019-02-17T13:05:55.143Z,69.74
2019-02-17T13:06:56.561Z,68.49
2019-02-17T13:07:57.955Z,68.59
2019-02-17T13:08:59.393Z,69.17
2019-02-17T13:10:00.828Z,69.26
2019-02-17T13:11:02.403Z,69.07